sensor_id;sensor_type;location;lat;lon;timestamp;P1;durP1;ratioP1;P2;durP2;ratioP2
77880;SDS011;67077;50.298;18.996;2023-04-03T20:15:26;19.50;;;7.60;;
77880;SDS011;67077;50.298;18.996;2023-04-03T20:18:00;21.50;;;7.80;;
77880;SDS011;67077;50.298;18.996;2023-04-03T20:20:37;19.90;;;7.60;;
77880;SDS011;67077;50.298;18.996;2023-04-03T20:23:10;20.70;;;7.40;;
77880;SDS011;67077;50.298;18.996;2023-04-03T20:25:41;19.90;;;7.40;;
77880;SDS011;67077;50.298;18.996;2023-04-03T20:28:11;13.90;;;6.70;;
77880;SDS011;67077;50.298;18.996;2023-04-03T20:30:46;19.70;;;8.50;;
77880;SDS011;67077;50.298;18.996;2023-04-03T20:33:24;14.90;;;6.80;;
77880;SDS011;67077;50.298;18.996;2023-04-03T20:35:55;13.80;;;6.40;;
77880;SDS011;67077;50.298;18.996;2023-04-03T20:38:25;17.20;;;6.30;;
77880;SDS011;67077;50.298;18.996;2023-04-03T20:40:54;13.70;;;5.60;;
77880;SDS011;67077;50.298;18.996;2023-04-03T20:43:22;14.20;;;5.90;;
77880;SDS011;67077;50.298;18.996;2023-04-03T20:45:54;11.10;;;5.40;;
77880;SDS011;67077;50.298;18.996;2023-04-03T20:48:23;13.20;;;6.00;;
77880;SDS011;67077;50.298;18.996;2023-04-03T20:50:54;14.70;;;6.20;;
77880;SDS011;67077;50.298;18.996;2023-04-03T20:53:24;14.70;;;5.80;;
77880;SDS011;67077;50.298;18.996;2023-04-03T20:58:27;16.40;;;6.40;;
77880;SDS011;67077;50.298;18.996;2023-04-03T21:01:03;17.20;;;6.60;;
77880;SDS011;67077;50.298;18.996;2023-04-03T21:03:39;17.70;;;7.40;;
77880;SDS011;67077;50.298;18.996;2023-04-03T21:20:57;24.00;;;8.90;;
77880;SDS011;67077;50.298;18.996;2023-04-03T21:23:25;26.00;;;8.90;;
77880;SDS011;67077;50.298;18.996;2023-04-03T21:25:55;18.80;;;8.20;;
77880;SDS011;67077;50.298;18.996;2023-04-03T21:28:24;18.70;;;8.00;;
77880;SDS011;67077;50.298;18.996;2023-04-03T21:30:54;23.00;;;8.50;;
77880;SDS011;67077;50.298;18.996;2023-04-03T21:33:22;26.00;;;8.60;;
77880;SDS011;67077;50.298;18.996;2023-04-03T21:35:51;23.30;;;8.50;;
77880;SDS011;67077;50.298;18.996;2023-04-03T21:38:24;18.10;;;7.70;;
77880;SDS011;67077;50.298;18.996;2023-04-03T21:40:57;20.40;;;7.20;;
77880;SDS011;67077;50.298;18.996;2023-04-03T21:43:27;17.70;;;7.40;;
77880;SDS011;67077;50.298;18.996;2023-04-03T21:45:56;19.30;;;7.10;;
77880;SDS011;67077;50.298;18.996;2023-04-03T21:48:26;15.80;;;7.10;;
77880;SDS011;67077;50.298;18.996;2023-04-03T21:51:00;15.50;;;7.30;;
77880;SDS011;67077;50.298;18.996;2023-04-03T21:53:29;18.60;;;7.80;;
77880;SDS011;67077;50.298;18.996;2023-04-03T21:55:57;15.40;;;6.50;;
77880;SDS011;67077;50.298;18.996;2023-04-03T21:58:28;19.70;;;7.50;;
77880;SDS011;67077;50.298;18.996;2023-04-03T22:01:09;16.30;;;6.90;;
77880;SDS011;67077;50.298;18.996;2023-04-03T22:03:39;15.40;;;6.70;;
77880;SDS011;67077;50.298;18.996;2023-04-03T22:06:08;16.30;;;7.40;;
77880;SDS011;67077;50.298;18.996;2023-04-03T22:08:38;17.00;;;6.90;;
77880;SDS011;67077;50.298;18.996;2023-04-03T22:11:13;14.80;;;7.10;;
77880;SDS011;67077;50.298;18.996;2023-04-03T22:13:43;23.10;;;8.10;;
77880;SDS011;67077;50.298;18.996;2023-04-03T22:16:12;19.10;;;8.00;;
77880;SDS011;67077;50.298;18.996;2023-04-03T22:18:40;18.20;;;7.60;;
77880;SDS011;67077;50.298;18.996;2023-04-03T22:21:08;15.90;;;7.00;;
77880;SDS011;67077;50.298;18.996;2023-04-03T22:23:36;15.20;;;7.30;;
77880;SDS011;67077;50.298;18.996;2023-04-03T22:26:06;19.80;;;8.10;;
77880;SDS011;67077;50.298;18.996;2023-04-03T22:28:37;16.20;;;7.20;;
77880;SDS011;67077;50.298;18.996;2023-04-03T22:31:09;17.90;;;7.50;;
77880;SDS011;67077;50.298;18.996;2023-04-03T22:33:40;20.30;;;8.00;;
77880;SDS011;67077;50.298;18.996;2023-04-03T22:36:09;17.00;;;7.40;;
77880;SDS011;67077;50.298;18.996;2023-04-03T22:38:39;19.10;;;8.30;;
77880;SDS011;67077;50.298;18.996;2023-04-03T22:41:09;19.10;;;8.10;;
77880;SDS011;67077;50.298;18.996;2023-04-03T22:43:38;17.50;;;7.90;;
77880;SDS011;67077;50.298;18.996;2023-04-03T22:46:07;19.80;;;8.50;;
77880;SDS011;67077;50.298;18.996;2023-04-03T22:48:36;17.30;;;7.20;;
77880;SDS011;67077;50.298;18.996;2023-04-03T22:51:09;19.10;;;8.00;;
77880;SDS011;67077;50.298;18.996;2023-04-03T22:53:40;18.70;;;7.60;;
77880;SDS011;67077;50.298;18.996;2023-04-03T22:56:08;16.10;;;7.10;;
77880;SDS011;67077;50.298;18.996;2023-04-03T22:58:41;14.80;;;6.60;;
77880;SDS011;67077;50.298;18.996;2023-04-03T23:01:10;16.40;;;7.40;;
77880;SDS011;67077;50.298;18.996;2023-04-03T23:03:40;18.50;;;7.90;;
77880;SDS011;67077;50.298;18.996;2023-04-03T23:06:09;18.30;;;7.30;;
77880;SDS011;67077;50.298;18.996;2023-04-03T23:08:39;15.80;;;6.80;;
77880;SDS011;67077;50.298;18.996;2023-04-03T23:11:08;17.20;;;6.70;;
77880;SDS011;67077;50.298;18.996;2023-04-03T23:13:36;19.20;;;7.70;;
77880;SDS011;67077;50.298;18.996;2023-04-03T23:16:05;15.70;;;6.80;;
77880;SDS011;67077;50.298;18.996;2023-04-03T23:18:33;16.80;;;7.60;;
77880;SDS011;67077;50.298;18.996;2023-04-03T23:21:01;15.80;;;7.40;;
77880;SDS011;67077;50.298;18.996;2023-04-03T23:23:30;13.70;;;6.60;;
77880;SDS011;67077;50.298;18.996;2023-04-03T23:26:00;15.40;;;7.00;;
77880;SDS011;67077;50.298;18.996;2023-04-03T23:28:29;14.90;;;7.00;;
77880;SDS011;67077;50.298;18.996;2023-04-03T23:31:01;14.30;;;6.80;;
77880;SDS011;67077;50.298;18.996;2023-04-03T23:33:32;18.60;;;7.10;;
77880;SDS011;67077;50.298;18.996;2023-04-03T23:36:05;12.90;;;6.40;;
77880;SDS011;67077;50.298;18.996;2023-04-03T23:38:34;12.90;;;6.50;;
77880;SDS011;67077;50.298;18.996;2023-04-03T23:41:03;17.50;;;7.30;;
77880;SDS011;67077;50.298;18.996;2023-04-03T23:43:31;16.30;;;6.80;;
77880;SDS011;67077;50.298;18.996;2023-04-03T23:45:59;16.00;;;6.60;;
77880;SDS011;67077;50.298;18.996;2023-04-03T23:48:27;17.10;;;7.30;;
77880;SDS011;67077;50.298;18.996;2023-04-03T23:50:55;15.80;;;7.20;;
77880;SDS011;67077;50.298;18.996;2023-04-03T23:53:23;18.40;;;7.10;;
77880;SDS011;67077;50.298;18.996;2023-04-03T23:55:51;15.40;;;7.20;;
77880;SDS011;67077;50.298;18.996;2023-04-03T23:58:19;15.90;;;6.90;;
